Time;durP1;ratioP1;P1;durP2;ratioP2;P2;SDS_P1;SDS_P2;PMS_P1;PMS_P2;Temp;Humidity;BMP_temperature;BMP_pressure;BME280_temperature;BME280_humidity;BME280_pressure;Samples;Min_cycle;Max_cycle;Signal;HPM_P1;HPM_P2
2021/06/26 00:02:09;;;;;;;22.50;6.35;;;;;;;23.76;68.40;100814.05;1684170;85;25467;-60
2021/06/26 00:04:44;;;;;;;25.97;7.17;;;;;;;23.73;68.81;100812.28;1672597;85;26120;-60
2021/06/26 00:07:16;;;;;;;30.45;7.87;;;;;;;23.62;69.14;100821.22;1655469;86;25844;-60
2021/06/26 00:09:48;;;;;;;32.35;7.85;;;;;;;23.58;69.92;100835.93;1654820;85;27463;-60
2021/06/26 00:12:21;;;;;;;38.00;7.03;;;;;;;23.57;69.69;100845.23;1655049;85;25755;-60
2021/06/26 00:14:51;;;;;;;29.40;7.50;;;;;;;23.54;69.62;100856.12;1654993;85;25957;-60
2021/06/26 00:17:22;;;;;;;22.52;6.72;;;;;;;23.52;70.20;100851.92;1654990;86;26754;-60
2021/06/26 00:19:51;;;;;;;44.27;8.53;;;;;;;23.48;70.03;100851.53;1654640;86;25916;-60
2021/06/26 00:22:21;;;;;;;44.27;8.30;;;;;;;23.37;68.79;100854.41;1655136;85;28172;-60
2021/06/26 00:24:51;;;;;;;38.95;8.33;;;;;;;23.22;68.28;100869.80;1654751;85;25772;-60
2021/06/26 00:27:20;;;;;;;36.85;7.40;;;;;;;23.12;68.34;100882.58;1655269;86;25741;-59
2021/06/26 00:29:51;;;;;;;33.60;8.03;;;;;;;23.11;68.19;100890.50;1655182;86;26911;-59
2021/06/26 00:32:19;;;;;;;33.55;6.80;;;;;;;23.00;67.95;100905.42;1654975;86;26307;-59
2021/06/26 00:34:48;;;;;;;29.15;8.53;;;;;;;22.90;67.75;100905.89;1632973;86;28191;-59
2021/06/26 00:37:17;;;;;;;25.23;7.90;;;;;;;22.87;67.66;100903.56;1647834;86;25883;-59
2021/06/26 00:39:46;;;;;;;33.48;6.95;;;;;;;22.83;67.31;100901.23;1655143;85;25771;-59
2021/06/26 00:42:16;;;;;;;27.15;6.37;;;;;;;22.81;66.86;100903.89;1655067;85;26085;-59
2021/06/26 00:44:45;;;;;;;27.85;7.20;;;;;;;22.79;65.88;100904.63;1655141;85;25959;-60
2021/06/26 00:47:14;;;;;;;23.83;5.70;;;;;;;22.81;65.37;100902.52;1655334;85;27447;-59
2021/06/26 00:49:43;;;;;;;27.10;7.00;;;;;;;22.82;64.79;100909.69;1654855;85;25762;-59
2021/06/26 00:52:10;;;;;;;32.55;7.50;;;;;;;22.88;64.72;100911.56;1655020;86;25782;-59
2021/06/26 00:54:39;;;;;;;21.40;6.25;;;;;;;22.87;64.27;100894.80;1654934;86;45073;-59
2021/06/26 00:57:08;;;;;;;32.15;6.78;;;;;;;22.90;64.07;100900.40;1654910;85;25781;-59
2021/06/26 00:59:35;;;;;;;27.35;6.97;;;;;;;22.90;63.98;100918.23;1655088;85;27431;-59
2021/06/26 01:02:04;;;;;;;25.37;6.05;;;;;;;22.90;63.82;100912.74;1647448;86;25686;-59
2021/06/26 01:04:31;;;;;;;28.02;5.67;;;;;;;22.89;63.50;100905.56;1654912;85;25734;-59
2021/06/26 01:06:59;;;;;;;15.95;5.80;;;;;;;22.92;63.30;100912.84;1655006;85;27300;-59
2021/06/26 01:09:26;;;;;;;35.60;6.85;;;;;;;22.94;63.33;100913.47;1654781;85;25749;-59
2021/06/26 01:11:59;;;;;;;21.17;5.37;;;;;;;23.02;63.53;100915.66;1655098;86;27460;-59
2021/06/26 01:14:30;;;;;;;27.27;6.67;;;;;;;23.02;63.15;100920.60;1653434;85;25734;-59
2021/06/26 01:17:05;;;;;;;33.92;7.30;;;;;;;23.04;63.34;100909.44;1650742;86;25698;-59
2021/06/26 01:19:34;;;;;;;25.35;5.85;;;;;;;22.98;63.32;100909.22;1650851;86;26097;-59
2021/06/26 01:22:06;;;;;;;19.42;6.22;;;;;;;23.00;63.15;100901.30;1650973;85;25783;-59
2021/06/26 01:24:37;;;;;;;21.48;6.65;;;;;;;23.02;62.92;100908.80;1650820;85;28205;-59
2021/06/26 01:27:05;;;;;;;23.35;6.55;;;;;;;23.01;62.80;100899.71;1651001;86;25735;-59
2021/06/26 01:29:33;;;;;;;30.35;7.05;;;;;;;23.01;62.75;100891.48;1650562;86;25733;-59
2021/06/26 01:32:00;;;;;;;25.88;6.10;;;;;;;23.02;62.67;100884.94;1650526;85;26014;-60
2021/06/26 01:34:27;;;;;;;21.07;5.40;;;;;;;23.05;62.38;100897.38;1650660;86;25771;-59
2021/06/26 01:36:54;;;;;;;25.40;6.28;;;;;;;23.05;62.49;100892.75;1650687;85;29685;-59
2021/06/26 01:39:21;;;;;;;24.72;5.95;;;;;;;23.05;62.44;100905.61;1650532;86;25798;-59
2021/06/26 01:41:48;;;;;;;25.77;5.70;;;;;;;23.01;62.44;100902.45;1650707;86;25510;-59
2021/06/26 01:44:15;;;;;;;24.23;5.72;;;;;;;23.02;62.46;100893.17;1650573;85;26111;-59
2021/06/26 01:46:42;;;;;;;22.42;5.42;;;;;;;23.04;62.61;100895.72;1650802;85;25690;-60
2021/06/26 01:49:14;;;;;;;19.23;5.22;;;;;;;23.08;62.65;100891.47;1650762;85;27253;-59
2021/06/26 01:51:41;;;;;;;20.10;5.45;;;;;;;23.09;62.16;100887.66;1644052;86;25527;-60
2021/06/26 01:54:10;;;;;;;25.68;5.08;;;;;;;23.04;61.89;100873.77;1642344;87;25519;-60
2021/06/26 01:56:38;;;;;;;20.05;5.45;;;;;;;23.03;61.84;100868.80;1642527;86;26796;-59
2021/06/26 01:59:05;;;;;;;33.83;5.22;;;;;;;23.01;61.79;100862.67;1642054;86;25749;-60
2021/06/26 02:01:34;;;;;;;20.25;5.08;;;;;;;22.97;61.79;100862.81;1642568;86;27281;-59
2021/06/26 02:04:02;;;;;;;27.58;5.62;;;;;;;22.93;61.73;100858.29;1643098;85;26462;-59
2021/06/26 02:06:29;;;;;;;23.92;5.53;;;;;;;22.90;61.81;100853.77;1651014;86;25846;-59
2021/06/26 02:08:57;;;;;;;30.35;6.28;;;;;;;22.89;61.99;100845.22;1650608;86;26058;-60
2021/06/26 02:11:24;;;;;;;19.77;5.40;;;;;;;22.87;61.95;100844.59;1650775;86;25715;-59
2021/06/26 02:13:51;;;;;;;22.25;5.70;;;;;;;22.86;62.05;100841.53;1650511;86;27525;-60
2021/06/26 02:16:18;;;;;;;28.52;5.60;;;;;;;22.81;62.05;100843.04;1657609;85;26365;-60
2021/06/26 02:18:45;;;;;;;26.25;5.15;;;;;;;22.78;62.17;100834.38;1706041;84;25667;-59
2021/06/26 02:21:15;;;;;;;27.32;5.58;;;;;;;22.76;62.15;100834.60;1706155;82;26116;-59
2021/06/26 02:23:43;;;;;;;13.65;4.85;;;;;;;22.78;62.19;100828.38;1706604;84;25790;-59
2021/06/26 02:26:10;;;;;;;33.33;6.12;;;;;;;22.85;62.20;100826.13;1706230;84;27497;-59
2021/06/26 02:28:37;;;;;;;26.68;5.60;;;;;;;22.91;62.05;100830.73;1706398;82;25718;-59
2021/06/26 02:31:03;;;;;;;14.87;4.75;;;;;;;23.00;62.31;100837.67;1706287;82;25753;-59
2021/06/26 02:33:31;;;;;;;19.85;5.10;;;;;;;23.07;62.70;100839.88;1706202;84;26120;-59
2021/06/26 02:35:58;;;;;;;18.37;5.72;;;;;;;23.14;62.62;100843.94;1706789;82;26010;-60
2021/06/26 02:38:25;;;;;;;23.25;5.12;;;;;;;23.18;62.88;100834.26;1706232;84;28164;-59
2021/06/26 02:40:52;;;;;;;25.55;5.33;;;;;;;23.24;62.90;100836.66;1706141;84;25726;-59
2021/06/26 02:43:19;;;;;;;18.50;4.30;;;;;;;23.29;62.87;100839.58;1706376;82;25702;-60
2021/06/26 02:45:47;;;;;;;21.77;5.33;;;;;;;23.38;63.38;100839.63;1706039;82;26154;-59
2021/06/26 02:48:14;;;;;;;35.10;5.83;;;;;;;23.44;63.52;100844.78;1708862;82;25663;-60
2021/06/26 02:50:42;;;;;;;29.55;5.25;;;;;;;23.49;63.16;100855.10;1717943;83;28164;-59
2021/06/26 02:53:09;;;;;;;23.27;4.97;;;;;;;23.54;62.02;100854.75;1707628;82;25671;-59
2021/06/26 02:55:36;;;;;;;15.45;4.70;;;;;;;23.58;61.27;100850.48;1707799;84;25788;-59
2021/06/26 02:58:04;;;;;;;19.65;5.35;;;;;;;23.60;60.88;100850.28;1707799;84;26501;-59
2021/06/26 03:00:31;;;;;;;18.23;4.75;;;;;;;23.65;60.43;100858.69;1707640;82;25728;-59
2021/06/26 03:02:58;;;;;;;25.50;4.62;;;;;;;23.68;59.69;100854.66;1708014;82;27490;-59
2021/06/26 03:05:25;;;;;;;24.25;5.50;;;;;;;23.69;59.60;100853.08;1698863;83;25464;-59
2021/06/26 03:07:54;;;;;;;23.27;5.00;;;;;;;23.71;59.43;100848.73;1695532;84;25746;-60
2021/06/26 03:10:22;;;;;;;29.67;5.00;;;;;;;23.74;59.40;100852.41;1695270;83;26763;-59
2021/06/26 03:12:49;;;;;;;20.15;5.53;;;;;;;23.75;59.34;100849.44;1695574;83;25715;-59
2021/06/26 03:15:18;;;;;;;19.60;5.62;;;;;;;23.76;59.35;100845.62;1695290;84;27497;-59
2021/06/26 03:17:44;;;;;;;24.60;5.42;;;;;;;23.81;59.49;100849.08;1695301;83;25778;-59
2021/06/26 03:20:12;;;;;;;19.75;5.53;;;;;;;23.85;59.52;100843.98;1695535;84;25742;-59
2021/06/26 03:22:39;;;;;;;29.37;5.37;;;;;;;23.88;59.28;100840.80;1695034;84;26158;-59
2021/06/26 03:25:09;;;;;;;25.90;5.97;;;;;;;23.93;59.49;100837.38;1695382;84;25703;-59
2021/06/26 03:27:38;;;;;;;22.30;5.08;;;;;;;23.99;59.59;100840.08;1695285;83;27431;-60
2021/06/26 03:30:07;;;;;;;25.65;5.78;;;;;;;24.03;59.95;100836.35;1695225;83;25738;-59
2021/06/26 03:32:34;;;;;;;17.75;4.85;;;;;;;24.07;60.13;100837.60;1695455;84;25725;-59
2021/06/26 03:35:02;;;;;;;23.92;4.97;;;;;;;24.09;60.55;100840.11;1695263;84;26081;-59
2021/06/26 03:37:29;;;;;;;22.87;5.45;;;;;;;24.05;61.18;100836.98;1695397;83;25927;-59
2021/06/26 03:39:56;;;;;;;23.75;5.87;;;;;;;24.04;61.48;100836.15;1695149;84;27454;-59
2021/06/26 03:42:23;;;;;;;16.17;4.80;;;;;;;24.05;61.58;100832.86;1695167;84;25822;-59
2021/06/26 03:44:50;;;;;;;29.00;4.95;;;;;;;24.12;61.87;100822.64;1695336;83;25775;-59
2021/06/26 03:47:17;;;;;;;15.90;4.42;;;;;;;24.18;62.10;100823.13;1695268;84;27276;-59
2021/06/26 03:49:44;;;;;;;17.85;4.95;;;;;;;24.24;61.92;100815.89;1695421;83;25775;-60
2021/06/26 03:52:11;;;;;;;21.30;5.20;;;;;;;24.30;62.20;100814.98;1706422;84;27473;-59
2021/06/26 03:54:38;;;;;;;14.80;4.53;;;;;;;24.41;62.45;100820.80;1706039;84;25721;-59
2021/06/26 03:57:06;;;;;;;21.97;4.45;;;;;;;24.47;62.70;100814.38;1706115;82;26460;-60
2021/06/26 03:59:34;;;;;;;17.77;4.35;;;;;;;24.49;63.17;100816.37;1706240;84;26500;-60
2021/06/26 04:02:06;;;;;;;21.33;5.58;;;;;;;24.41;62.19;100814.75;1706338;84;25792;-59
2021/06/26 04:04:29;;;;;;;18.87;4.42;;;;;;;24.32;62.07;100815.60;1705976;82;27568;-60
2021/06/26 04:06:56;;;;;;;17.42;4.75;;;;;;;24.40;62.23;100824.61;1707687;84;25892;-60
2021/06/26 04:09:23;;;;;;;17.15;4.35;;;;;;;24.50;62.00;100826.31;1707392;84;25730;-60
2021/06/26 04:11:50;;;;;;;16.67;4.70;;;;;;;24.56;61.72;100821.81;1707693;82;26103;-59
2021/06/26 04:14:17;;;;;;;25.50;4.78;;;;;;;24.56;61.33;100817.14;1683408;82;25799;-60
2021/06/26 04:16:44;;;;;;;17.90;4.47;;;;;;;24.56;60.76;100813.02;1705322;84;27479;-60
2021/06/26 04:19:13;;;;;;;25.00;5.87;;;;;;;24.50;61.87;100812.02;1704769;82;25822;-59
2021/06/26 04:21:41;;;;;;;23.52;5.22;;;;;;;24.50;61.56;100814.77;1704613;83;25723;-59
2021/06/26 04:24:09;;;;;;;21.23;3.98;;;;;;;24.51;61.33;100811.50;1705018;82;26082;-59
2021/06/26 04:26:36;;;;;;;17.32;5.05;;;;;;;24.56;61.26;100810.27;1705260;84;25811;-59
2021/06/26 04:29:03;;;;;;;18.62;3.92;;;;;;;24.64;61.27;100812.70;1704877;82;28167;-59
2021/06/26 04:31:30;;;;;;;13.50;4.50;;;;;;;24.72;61.04;100806.63;1704738;82;25807;-59
2021/06/26 04:33:57;;;;;;;14.30;3.72;;;;;;;24.80;60.74;100806.31;1704867;82;25947;-60
2021/06/26 04:36:24;;;;;;;18.30;4.08;;;;;;;24.84;60.42;100818.55;1704847;84;26053;-59
2021/06/26 04:38:50;;;;;;;18.55;4.85;;;;;;;24.84;61.00;100807.54;1704824;82;25736;-59
2021/06/26 04:41:18;;;;;;;21.70;4.55;;;;;;;24.85;61.82;100811.98;1656645;82;27503;-60
2021/06/26 04:43:45;;;;;;;18.98;4.10;;;;;;;24.81;61.35;100809.37;1704999;82;25677;-59
2021/06/26 04:46:12;;;;;;;15.55;3.30;;;;;;;24.81;61.16;100820.37;1704787;83;25871;-59
2021/06/26 04:48:41;;;;;;;21.33;4.50;;;;;;;24.87;60.95;100818.62;1705254;82;26055;-59
2021/06/26 04:51:08;;;;;;;17.37;4.17;;;;;;;24.96;60.76;100821.36;1716392;83;25734;-59
2021/06/26 04:53:35;;;;;;;18.40;4.58;;;;;;;25.03;60.95;100810.27;1724376;83;27469;-59
2021/06/26 04:56:02;;;;;;;17.92;3.95;;;;;;;25.07;60.69;100809.58;1724262;83;26071;-59
2021/06/26 04:58:29;;;;;;;16.02;4.60;;;;;;;25.13;60.56;100810.02;1689581;84;25769;-59
2021/06/26 05:01:00;;;;;;;13.80;4.65;;;;;;;25.13;60.81;100803.13;1678995;85;26188;-59
2021/06/26 05:03:26;;;;;;;15.63;4.15;;;;;;;25.08;61.69;100803.00;1678936;85;25776;-59
2021/06/26 05:05:53;;;;;;;16.23;4.47;;;;;;;25.02;62.02;100793.45;1650641;85;27499;-60
2021/06/26 05:08:21;;;;;;;14.28;4.97;;;;;;;25.03;61.81;100800.09;1647466;87;25699;-59
2021/06/26 05:10:48;;;;;;;16.17;4.17;;;;;;;25.05;61.86;100802.08;1647483;85;25573;-59
2021/06/26 05:13:16;;;;;;;17.12;3.77;;;;;;;25.08;62.04;100796.64;1647757;86;26126;-59
2021/06/26 05:15:44;;;;;;;17.55;4.55;;;;;;;25.12;61.16;100797.32;1644971;86;25526;-59
2021/06/26 05:18:11;;;;;;;21.57;4.37;;;;;;;25.14;59.80;100799.86;1638663;87;27500;-60
2021/06/26 05:20:42;;;;;;;22.77;4.45;;;;;;;25.07;57.86;100796.33;1638741;87;25531;-59
2021/06/26 05:23:16;;;;;;;22.07;4.55;;;;;;;25.06;57.06;100796.89;1638521;87;25549;-60
2021/06/26 05:25:44;;;;;;;20.40;4.20;;;;;;;25.16;57.52;100794.94;1638378;87;26842;-59
2021/06/26 05:28:12;;;;;;;16.52;4.12;;;;;;;25.29;57.62;100796.14;1638806;87;25621;-59
2021/06/26 05:30:40;;;;;;;18.37;4.83;;;;;;;25.42;57.84;100787.39;1639153;87;28386;-59
2021/06/26 05:33:07;;;;;;;21.20;4.42;;;;;;;25.53;57.96;100790.73;1638774;87;25776;-59
2021/06/26 05:35:35;;;;;;;23.47;4.15;;;;;;;25.70;58.00;100793.66;1639000;87;25753;-60
2021/06/26 05:38:03;;;;;;;19.27;3.80;;;;;;;25.80;57.85;100792.23;1638796;87;26084;-59
2021/06/26 05:40:30;;;;;;;17.17;3.10;;;;;;;25.90;57.02;100780.91;1639102;87;25478;-59
2021/06/26 05:42:57;;;;;;;12.68;3.22;;;;;;;25.98;54.83;100771.98;1639020;87;28226;-59
2021/06/26 05:45:24;;;;;;;14.28;3.65;;;;;;;25.95;54.03;100762.28;1638935;87;25551;-59
2021/06/26 05:47:51;;;;;;;15.90;3.55;;;;;;;26.03;54.41;100765.23;1638924;87;25864;-59
2021/06/26 05:50:18;;;;;;;18.77;3.25;;;;;;;26.12;54.38;100758.83;1632372;87;26216;-59
2021/06/26 05:52:49;;;;;;;16.27;3.92;;;;;;;26.22;54.84;100761.27;1612783;89;25716;-59
2021/06/26 05:55:19;;;;;;;20.20;3.77;;;;;;;26.36;53.84;100762.41;1612737;89;27405;-59
2021/06/26 05:57:46;;;;;;;17.48;3.22;;;;;;;26.42;54.48;100760.05;1612206;88;25757;-59
2021/06/26 06:00:16;;;;;;;15.38;4.53;;;;;;;26.45;54.29;100747.16;1612500;89;25825;-59
2021/06/26 06:02:46;;;;;;;17.40;3.05;;;;;;;26.47;52.96;100747.77;1612552;88;26076;-59
2021/06/26 06:05:14;;;;;;;9.65;3.17;;;;;;;26.49;53.64;100751.09;1629589;87;25462;-59
2021/06/26 06:07:43;;;;;;;7.40;2.42;;;;;;;26.43;53.01;100745.73;1640323;87;27468;-59
2021/06/26 06:10:14;;;;;;;11.33;2.77;;;;;;;26.37;52.52;100748.92;1639974;87;25751;-59
2021/06/26 06:12:42;;;;;;;13.50;3.40;;;;;;;26.28;52.87;100749.00;1640126;87;25762;-60
2021/06/26 06:15:12;;;;;;;22.67;3.27;;;;;;;26.17;53.18;100745.18;1622761;87;27321;-60
2021/06/26 06:17:40;;;;;;;19.15;3.58;;;;;;;26.06;53.19;100743.53;1645927;85;25841;-59
2021/06/26 06:20:09;;;;;;;18.57;4.03;;;;;;;25.98;53.35;100743.04;1646561;87;28180;-59
2021/06/26 06:22:37;;;;;;;17.30;4.33;;;;;;;25.85;52.92;100738.09;1646296;85;25784;-60
2021/06/26 06:25:10;;;;;;;16.32;4.92;;;;;;;25.80;53.40;100736.57;1646486;87;25720;-60
2021/06/26 06:27:42;;;;;;;22.15;3.83;;;;;;;25.80;53.73;100739.88;1652795;85;26169;-60
2021/06/26 06:30:11;;;;;;;10.60;3.45;;;;;;;25.81;54.21;100742.94;1676706;84;25750;-60
2021/06/26 06:32:39;;;;;;;10.08;3.30;;;;;;;25.85;54.15;100747.73;1670635;85;27447;-59
2021/06/26 06:35:09;;;;;;;13.80;3.40;;;;;;;25.88;54.45;100740.90;1662876;84;25745;-60
2021/06/26 06:37:39;;;;;;;13.00;3.42;;;;;;;25.91;54.67;100743.16;1657318;84;25786;-61
2021/06/26 06:40:12;;;;;;;14.20;6.42;;;;;;;25.92;54.54;100739.33;1634009;85;27505;-60
2021/06/26 06:42:43;;;;;;;12.37;3.45;;;;;;;25.91;54.11;100736.27;1655043;85;25892;-59
2021/06/26 06:45:35;;;;;;;14.65;3.77;;;;;;;25.82;53.38;100735.80;1645367;85;27926;-59
2021/06/26 06:48:03;;;;;;;16.75;4.78;;;;;;;25.84;54.13;100732.27;1674515;84;25858;-61
2021/06/26 06:50:34;;;;;;;10.98;3.30;;;;;;;25.91;54.71;100734.89;1681900;84;25653;-61
2021/06/26 06:53:02;;;;;;;21.93;3.87;;;;;;;25.95;54.09;100737.48;1696036;83;26248;-58
2021/06/26 06:55:30;;;;;;;15.38;4.30;;;;;;;25.96;54.64;100734.17;1680364;84;25808;-58
2021/06/26 06:57:57;;;;;;;30.65;6.30;;;;;;;26.00;54.76;100728.49;1691325;84;27474;-58
2021/06/26 07:00:25;;;;;;;19.37;4.22;;;;;;;26.05;54.69;100729.45;1660263;86;25938;-59
2021/06/26 07:02:52;;;;;;;24.57;4.58;;;;;;;26.13;54.38;100733.80;1661047;86;25714;-59
2021/06/26 07:05:19;;;;;;;15.98;3.80;;;;;;;26.23;54.18;100731.80;1657155;85;26097;-58
2021/06/26 07:07:46;;;;;;;20.52;3.60;;;;;;;26.38;52.69;100725.78;1657778;86;25651;-58
2021/06/26 07:10:13;;;;;;;11.00;3.20;;;;;;;26.56;52.87;100725.63;1657637;86;27497;-58
2021/06/26 07:12:40;;;;;;;31.85;5.75;;;;;;;26.75;52.13;100727.34;1657506;86;25781;-59
2021/06/26 07:15:10;;;;;;;19.87;4.33;;;;;;;26.92;52.09;100735.16;1657588;86;25756;-59
2021/06/26 07:17:37;;;;;;;18.42;4.35;;;;;;;27.16;51.08;100740.59;1657622;85;26182;-59
2021/06/26 07:20:06;;;;;;;19.87;3.67;;;;;;;27.37;50.97;100743.17;1681556;85;25842;-59
2021/06/26 07:22:33;;;;;;;18.77;3.35;;;;;;;27.52;50.87;100741.25;1659513;86;27533;-59
2021/06/26 07:25:10;;;;;;;12.90;3.47;;;;;;;27.67;51.00;100754.46;1676507;84;26258;-59
2021/06/26 07:27:44;;;;;;;22.00;3.00;;;;;;;27.82;50.98;100759.96;1691043;83;25760;-61
2021/06/26 07:30:13;;;;;;;16.93;3.80;;;;;;;27.96;50.15;100769.57;1659606;85;25842;-61
2021/06/26 07:32:44;;;;;;;19.85;3.85;;;;;;;28.04;49.82;100769.70;1660172;85;27029;-60
2021/06/26 07:35:12;;;;;;;12.28;4.60;;;;;;;28.08;49.73;100770.36;1660308;85;28510;-60
2021/06/26 07:37:39;;;;;;;34.10;5.00;;;;;;;28.05;50.63;100766.67;1691220;84;26042;-60
2021/06/26 07:40:08;;;;;;;19.85;4.67;;;;;;;28.11;51.63;100760.70;1660233;86;25776;-60
2021/06/26 07:42:35;;;;;;;23.62;3.55;;;;;;;28.21;51.00;100762.77;1660287;85;26096;-60
2021/06/26 07:45:02;;;;;;;16.37;3.70;;;;;;;28.24;49.99;100758.95;1660776;86;25808;-60
2021/06/26 07:47:29;;;;;;;17.37;3.70;;;;;;;28.29;50.37;100762.89;1661015;85;28259;-60
2021/06/26 07:49:56;;;;;;;13.83;3.87;;;;;;;28.39;49.88;100769.95;1657343;86;25796;-60
2021/06/26 07:52:23;;;;;;;13.72;2.92;;;;;;;28.52;50.39;100765.97;1658177;86;25811;-60
2021/06/26 07:54:50;;;;;;;19.60;4.40;;;;;;;28.71;50.29;100764.59;1657693;86;26451;-60
2021/06/26 07:57:17;;;;;;;14.03;3.27;;;;;;;28.85;49.52;100760.02;1658244;85;25506;-60
2021/06/26 07:59:44;;;;;;;17.35;3.20;;;;;;;28.91;49.21;100760.92;1657862;86;28124;-60
2021/06/26 08:02:11;;;;;;;18.00;3.75;;;;;;;28.95;48.36;100758.76;1658033;86;25802;-60
2021/06/26 08:04:38;;;;;;;18.15;4.25;;;;;;;28.92;48.59;100757.88;1664857;85;25673;-60
2021/06/26 08:07:05;;;;;;;27.58;4.08;;;;;;;28.97;49.19;100756.58;1676739;85;26075;-60
2021/06/26 08:09:32;;;;;;;12.50;3.50;;;;;;;29.04;48.35;100752.22;1653363;86;25864;-60
2021/06/26 08:11:59;;;;;;;14.87;3.52;;;;;;;29.05;48.96;100758.87;1660824;85;28254;-60
2021/06/26 08:14:26;;;;;;;9.53;3.35;;;;;;;29.05;48.52;100761.64;1658339;86;25761;-60
2021/06/26 08:16:56;;;;;;;19.10;2.80;;;;;;;28.97;48.13;100764.03;1657436;86;25842;-60
2021/06/26 08:19:23;;;;;;;15.48;2.98;;;;;;;28.98;47.60;100768.47;1657658;86;26110;-61
2021/06/26 08:21:50;;;;;;;13.15;2.80;;;;;;;29.03;47.04;100766.60;1632829;86;25799;-60
2021/06/26 08:24:28;;;;;;;15.32;3.50;;;;;;;28.93;45.92;100759.56;1653943;86;28203;-60
2021/06/26 08:26:54;;;;;;;25.23;3.52;;;;;;;28.87;46.79;100760.05;1663276;86;25853;-60
2021/06/26 08:29:21;;;;;;;12.82;3.05;;;;;;;29.09;48.24;100770.27;1657756;86;25778;-60
2021/06/26 08:31:48;;;;;;;15.08;3.80;;;;;;;29.25;47.93;100767.64;1663204;86;26885;-60
2021/06/26 08:34:14;;;;;;;18.20;3.72;;;;;;;29.30;48.19;100766.33;1657628;86;25842;-60
2021/06/26 08:36:41;;;;;;;16.30;3.08;;;;;;;29.37;48.25;100766.98;1663717;85;27499;-60
2021/06/26 08:39:08;;;;;;;11.73;3.35;;;;;;;29.28;47.29;100773.50;1657304;86;25728;-60
2021/06/26 08:41:40;;;;;;;9.05;2.85;;;;;;;29.19;47.03;100770.38;1654560;86;25705;-60
2021/06/26 08:44:07;;;;;;;8.83;2.90;;;;;;;29.03;47.18;100774.91;1658488;84;26153;-60
2021/06/26 08:46:44;;;;;;;14.18;3.25;;;;;;;28.96;47.94;100772.90;1662809;85;25757;-60
2021/06/26 08:49:12;;;;;;;18.30;4.10;;;;;;;28.93;47.75;100776.17;1682514;85;27489;-60
2021/06/26 08:51:39;;;;;;;21.87;3.45;;;;;;;28.87;48.24;100764.77;1682649;85;25811;-60
2021/06/26 08:54:17;;;;;;;19.52;3.27;;;;;;;28.86;48.25;100770.01;1701915;84;25737;-59
2021/06/26 08:56:47;;;;;;;14.13;3.60;;;;;;;28.88;48.37;100768.64;1696475;84;26111;-60
2021/06/26 08:59:16;;;;;;;9.35;3.15;;;;;;;29.03;48.89;100771.31;1698298;84;26052;-59
2021/06/26 09:01:45;;;;;;;14.87;4.62;;;;;;;29.29;48.87;100767.42;1702105;84;27469;-59
2021/06/26 09:04:19;;;;;;;12.53;4.28;;;;;;;29.60;48.59;100768.56;1702310;84;25469;-59
2021/06/26 09:06:53;;;;;;;11.15;3.58;;;;;;;29.81;47.39;100767.33;1701918;83;25769;-60
2021/06/26 09:09:38;;;;;;;27.65;3.92;;;;;;;29.95;45.43;100764.42;1683083;85;26127;-60
2021/06/26 09:12:08;;;;;;;25.37;3.22;;;;;;;30.19;45.89;100751.53;1682782;85;25800;-60
2021/06/26 09:14:37;;;;;;;19.35;3.60;;;;;;;30.51;46.16;100760.84;1682989;85;27435;-60
2021/06/26 09:17:06;;;;;;;10.98;3.15;;;;;;;30.93;45.32;100759.09;1682758;85;26200;-60
2021/06/26 09:19:36;;;;;;;11.22;3.08;;;;;;;31.09;44.04;100757.19;1683144;85;25938;-60
2021/06/26 09:22:10;;;;;;;19.25;3.27;;;;;;;31.21;43.84;100760.02;1682814;85;26114;-62
2021/06/26 09:24:47;;;;;;;17.50;3.27;;;;;;;31.51;44.65;100762.52;1676894;85;25885;-60
2021/06/26 09:27:18;;;;;;;18.90;3.50;;;;;;;31.76;43.84;100765.61;1676379;85;27476;-60
2021/06/26 09:29:55;;;;;;;18.55;3.22;;;;;;;31.96;41.80;100763.39;1662214;85;25544;-60
2021/06/26 09:32:31;;;;;;;47.33;3.90;;;;;;;32.09;40.76;100757.80;1647018;86;25760;-60
2021/06/26 09:34:59;;;;;;;10.58;2.75;;;;;;;32.38;40.63;100759.95;1673330;85;26457;-60
2021/06/26 09:37:31;;;;;;;53.08;4.55;;;;;;;32.56;41.63;100761.28;1648644;86;25776;-60
2021/06/26 09:40:02;;;;;;;11.83;2.50;;;;;;;32.77;39.37;100760.05;1676379;85;28286;-60
2021/06/26 09:42:39;;;;;;;16.70;3.35;;;;;;;32.85;40.02;100760.62;1698000;84;25760;-60
2021/06/26 09:45:10;;;;;;;20.35;3.80;;;;;;;33.02;38.87;100754.12;1701971;84;25812;-61
2021/06/26 09:47:44;;;;;;;22.67;3.85;;;;;;;32.92;39.72;100755.57;1705185;83;26126;-61
2021/06/26 09:50:24;;;;;;;10.90;2.65;;;;;;;32.93;39.46;100752.48;1709885;83;25801;-61
2021/06/26 09:53:02;;;;;;;24.23;3.30;;;;;;;33.09;39.85;100750.44;1740379;82;28243;-61
2021/06/26 09:55:33;;;;;;;17.20;3.00;;;;;;;33.23;38.89;100756.74;1724944;82;25749;-61
2021/06/26 09:58:13;;;;;;;18.70;3.40;;;;;;;33.31;38.36;100762.27;1684781;84;25934;-61
2021/06/26 10:00:42;;;;;;;11.75;2.87;;;;;;;33.35;39.13;100767.59;1684626;84;26937;-60
2021/06/26 10:03:10;;;;;;;18.32;3.45;;;;;;;33.40;39.02;100758.59;1684621;84;25798;-60
2021/06/26 10:05:38;;;;;;;14.63;3.15;;;;;;;33.51;38.55;100761.31;1687244;83;27424;-61
2021/06/26 10:08:07;;;;;;;43.65;5.87;;;;;;;33.62;38.32;100757.31;1722401;83;25802;-60
2021/06/26 10:10:35;;;;;;;25.52;4.33;;;;;;;33.66;38.74;100758.41;1722475;83;25768;-60
2021/06/26 10:13:02;;;;;;;18.32;3.55;;;;;;;33.48;39.04;100756.33;1722242;83;26752;-60
2021/06/26 10:15:33;;;;;;;12.90;3.42;;;;;;;33.33;39.83;100755.89;1722555;83;25785;-61
2021/06/26 10:18:01;;;;;;;16.85;4.05;;;;;;;33.39;40.13;100759.75;1722478;83;28219;-61
2021/06/26 10:20:29;;;;;;;24.00;4.75;;;;;;;33.38;39.86;100771.17;1722286;83;25667;-60
2021/06/26 10:23:00;;;;;;;17.02;3.90;;;;;;;33.41;40.17;100765.02;1722606;83;25804;-60
2021/06/26 10:25:36;;;;;;;18.15;5.03;;;;;;;33.33;39.81;100769.83;1722011;83;26803;-60
2021/06/26 10:28:13;;;;;;;29.95;5.00;;;;;;;33.15;40.17;100765.72;1722466;83;25797;-60
2021/06/26 10:30:41;;;;;;;21.70;4.80;;;;;;;33.05;40.69;100774.42;1702343;83;27492;-61
2021/06/26 10:33:10;;;;;;;17.02;3.45;;;;;;;33.11;40.83;100771.05;1703906;83;25769;-60
2021/06/26 10:35:42;;;;;;;23.30;4.72;;;;;;;32.90;41.33;100773.13;1705932;83;25813;-60
2021/06/26 10:38:13;;;;;;;20.27;3.20;;;;;;;32.95;41.30;100775.87;1698943;83;26814;-61
2021/06/26 10:40:56;;;;;;;19.23;3.70;;;;;;;33.10;41.23;100773.55;1702627;83;25722;-60
2021/06/26 10:43:30;;;;;;;18.00;3.20;;;;;;;33.13;41.19;100775.78;1706952;83;27495;-60
2021/06/26 10:46:12;;;;;;;13.88;3.52;;;;;;;33.13;40.57;100764.62;1702767;83;25775;-60
2021/06/26 10:48:44;;;;;;;16.20;3.30;;;;;;;32.97;39.75;100772.24;1693479;83;25762;-60
2021/06/26 10:51:11;;;;;;;12.53;3.27;;;;;;;33.06;40.37;100771.09;1688695;83;26120;-60
2021/06/26 10:53:41;;;;;;;22.67;3.42;;;;;;;33.21;39.40;100762.62;1662265;86;25876;-60
2021/06/26 10:56:20;;;;;;;11.40;3.25;;;;;;;33.86;38.27;100764.92;1661836;86;27474;-60
2021/06/26 10:58:46;;;;;;;17.77;3.75;;;;;;;34.37;37.61;100766.91;1660799;86;25826;-60
2021/06/26 11:01:18;;;;;;;19.30;4.03;;;;;;;35.12;35.68;100765.39;1661730;86;26518;-60
2021/06/26 11:03:47;;;;;;;;;;;;;;;35.74;33.50;100758.81;1664774;84;26939;-61
2021/06/26 11:06:27;;;;;;;27.73;4.20;;;;;;;35.84;33.91;100760.62;1662180;86;25737;-60
2021/06/26 11:08:58;;;;;;;18.80;3.37;;;;;;;36.30;33.56;100765.37;1657695;86;28163;-60
2021/06/26 11:11:39;;;;;;;16.60;3.70;;;;;;;36.50;32.74;100766.09;1661906;86;25831;-60
2021/06/26 11:14:14;;;;;;;16.80;2.80;;;;;;;36.71;32.23;100762.86;1662293;86;25823;-60
2021/06/26 11:16:52;;;;;;;15.30;3.22;;;;;;;36.60;32.51;100762.26;1660411;86;26450;-60
2021/06/26 11:19:21;;;;;;;18.00;4.55;;;;;;;36.64;32.60;100762.72;1661068;85;25774;-61
2021/06/26 11:21:52;;;;;;;14.60;3.65;;;;;;;36.93;33.32;100761.56;1709181;83;27352;-61
2021/06/26 11:24:32;;;;;;;14.38;3.35;;;;;;;37.15;32.49;100768.91;1708964;83;25521;-61
2021/06/26 11:26:59;;;;;;;14.15;2.52;;;;;;;37.21;31.90;100771.84;1708816;83;25612;-61